Time;durP1;ratioP1;P1;durP2;ratioP2;P2;SDS_P1;SDS_P2;PMS_P1;PMS_P2;Temp;Humidity;BMP_temperature;BMP_pressure;BME280_temperature;BME280_humidity;BME280_pressure;Samples;Min_cycle;Max_cycle;Signal;HPM_P1;HPM_P2
2021/07/11 00:01:57;;;;;;;26.20;24.70;;;;;;;;;;5037192;28;20426;-88
2021/07/11 00:04:25;;;;;;;25.93;24.33;;;;;;;;;;5037116;28;20494;-87
2021/07/11 00:06:52;;;;;;;25.37;23.70;;;;;;;;;;5037279;28;20427;-88
2021/07/11 00:09:21;;;;;;;27.03;25.43;;;;;;;;;;5037048;28;20452;-88
2021/07/11 00:11:48;;;;;;;25.73;23.73;;;;;;;;;;5036778;28;20777;-88
2021/07/11 00:14:16;;;;;;;27.17;25.27;;;;;;;;;;5037093;28;20415;-87
2021/07/11 00:16:43;;;;;;;26.30;24.60;;;;;;;;;;5036727;28;20444;-88
2021/07/11 00:19:11;;;;;;;26.23;24.47;;;;;;;;;;5019525;28;20543;-88
2021/07/11 00:21:38;;;;;;;25.87;24.27;;;;;;;;;;5036992;28;20418;-88
2021/07/11 00:24:06;;;;;;;25.83;24.27;;;;;;;;;;5036745;28;20502;-88
2021/07/11 00:26:35;;;;;;;25.77;24.17;;;;;;;;;;5018903;28;20458;-88
2021/07/11 00:29:02;;;;;;;24.77;23.37;;;;;;;;;;5018921;28;20442;-87
2021/07/11 00:31:29;;;;;;;25.60;24.00;;;;;;;;;;5036423;28;20422;-87
2021/07/11 00:33:57;;;;;;;25.87;24.27;;;;;;;;;;5036468;28;20418;-88
2021/07/11 00:36:24;;;;;;;25.83;24.23;;;;;;;;;;5019198;28;20436;-88
2021/07/11 00:38:52;;;;;;;26.53;24.90;;;;;;;;;;5036448;28;20410;-89
2021/07/11 00:41:19;;;;;;;26.77;24.97;;;;;;;;;;5036301;28;20998;-88
2021/07/11 00:43:48;;;;;;;25.17;23.67;;;;;;;;;;5018735;28;20489;-88
2021/07/11 00:46:15;;;;;;;24.70;23.30;;;;;;;;;;5036581;28;20419;-87
2021/07/11 00:48:43;;;;;;;25.93;24.07;;;;;;;;;;5036223;28;20536;-88
2021/07/11 00:51:11;;;;;;;24.33;22.83;;;;;;;;;;5018707;28;20535;-88
2021/07/11 00:53:49;;;;;;;26.70;24.90;;;;;;;;;;5036280;28;20439;-88
2021/07/11 00:56:16;;;;;;;25.47;23.97;;;;;;;;;;5035206;28;20432;-88
2021/07/11 00:58:44;;;;;;;24.77;23.37;;;;;;;;;;5018958;28;20447;-88
2021/07/11 01:01:15;;;;;;;23.43;22.13;;;;;;;;;;5036171;28;20436;-88
2021/07/11 01:03:43;;;;;;;27.63;25.70;;;;;;;;;;5036044;28;20481;-88
2021/07/11 01:06:11;;;;;;;26.93;25.20;;;;;;;;;;5035836;28;20440;-88
2021/07/11 01:08:41;;;;;;;29.07;26.70;;;;;;;;;;5035944;28;20444;-88
2021/07/11 01:11:09;;;;;;;28.73;26.83;;;;;;;;;;5035613;28;20416;-88
2021/07/11 01:13:37;;;;;;;28.30;26.47;;;;;;;;;;5035618;28;20427;-88
2021/07/11 01:16:07;;;;;;;29.97;27.97;;;;;;;;;;5035588;28;20457;-88
2021/07/11 01:18:39;;;;;;;28.50;26.60;;;;;;;;;;5035586;28;20453;-88
2021/07/11 01:21:08;;;;;;;26.50;24.83;;;;;;;;;;5035663;28;20766;-88
2021/07/11 01:23:38;;;;;;;28.83;26.87;;;;;;;;;;5035708;28;20822;-88
2021/07/11 01:26:08;;;;;;;30.17;28.03;;;;;;;;;;5035435;28;20446;-88
2021/07/11 01:28:36;;;;;;;28.40;26.60;;;;;;;;;;5035292;28;20446;-89
2021/07/11 01:31:04;;;;;;;29.47;27.60;;;;;;;;;;5018377;28;20420;-89
2021/07/11 01:33:32;;;;;;;29.20;27.40;;;;;;;;;;5035647;28;20474;-89
2021/07/11 01:36:00;;;;;;;29.83;27.50;;;;;;;;;;5035687;28;20501;-89
2021/07/11 01:38:28;;;;;;;29.57;27.60;;;;;;;;;;5035471;28;20434;-89
2021/07/11 01:40:55;;;;;;;30.63;28.70;;;;;;;;;;5035185;28;20476;-89
2021/07/11 01:43:24;;;;;;;29.53;27.63;;;;;;;;;;5035014;28;20416;-89
2021/07/11 01:45:53;;;;;;;28.17;26.40;;;;;;;;;;5035212;28;20822;-89
2021/07/11 01:48:20;;;;;;;28.50;26.53;;;;;;;;;;5035169;28;20457;-89
2021/07/11 01:50:51;;;;;;;31.10;29.00;;;;;;;;;;5035135;28;20473;-89
2021/07/11 01:53:19;;;;;;;28.40;26.70;;;;;;;;;;5035150;28;20441;-89
2021/07/11 01:55:46;;;;;;;28.30;26.60;;;;;;;;;;5034915;28;20453;-89
2021/07/11 01:58:14;;;;;;;28.80;27.00;;;;;;;;;;5034935;28;20946;-89
2021/07/11 02:00:43;;;;;;;28.73;26.70;;;;;;;;;;5035128;28;20435;-89
2021/07/11 02:03:17;;;;;;;30.20;27.90;;;;;;;;;;5035072;28;20441;-90
2021/07/11 02:05:45;;;;;;;28.47;26.73;;;;;;;;;;5034831;28;20467;-90
2021/07/11 02:08:13;;;;;;;27.40;25.70;;;;;;;;;;5034665;28;20837;-90
2021/07/11 02:10:41;;;;;;;28.67;26.87;;;;;;;;;;5034635;28;20435;-89
2021/07/11 02:13:11;;;;;;;28.03;26.33;;;;;;;;;;5034800;28;20440;-89
2021/07/11 02:15:38;;;;;;;28.60;26.60;;;;;;;;;;5034543;28;20419;-89
2021/07/11 02:18:08;;;;;;;28.03;26.03;;;;;;;;;;5034712;28;20762;-89
2021/07/11 02:20:36;;;;;;;28.53;26.80;;;;;;;;;;5016977;28;20422;-89
2021/07/11 02:23:03;;;;;;;29.27;27.47;;;;;;;;;;5034750;28;20416;-89
2021/07/11 02:25:31;;;;;;;28.00;26.10;;;;;;;;;;5034491;28;20462;-89
2021/07/11 02:27:58;;;;;;;29.13;27.30;;;;;;;;;;5016573;28;20479;-89
2021/07/11 02:30:28;;;;;;;29.47;27.57;;;;;;;;;;5034114;28;20415;-89
2021/07/11 02:32:56;;;;;;;29.27;27.37;;;;;;;;;;5034229;28;20445;-89
2021/07/11 02:35:30;;;;;;;29.50;27.70;;;;;;;;;;5034609;28;20419;-89
2021/07/11 02:37:57;;;;;;;30.70;28.50;;;;;;;;;;5034563;28;20750;-89
2021/07/11 02:40:25;;;;;;;28.87;27.07;;;;;;;;;;5034098;28;20574;-89
2021/07/11 02:42:53;;;;;;;29.00;27.10;;;;;;;;;;5034496;28;20437;-89
2021/07/11 02:45:20;;;;;;;28.80;27.07;;;;;;;;;;5034046;28;20797;-89
2021/07/11 02:47:48;;;;;;;28.23;26.43;;;;;;;;;;5034258;28;20468;-90
2021/07/11 02:50:16;;;;;;;29.90;28.00;;;;;;;;;;5016315;28;20423;-88
2021/07/11 02:52:45;;;;;;;30.43;28.13;;;;;;;;;;5034165;28;20438;-89
2021/07/11 02:55:15;;;;;;;30.63;28.50;;;;;;;;;;5034571;28;20427;-89
2021/07/11 02:57:44;;;;;;;29.23;27.33;;;;;;;;;;5033937;28;20451;-89
2021/07/11 03:00:11;;;;;;;29.77;27.93;;;;;;;;;;5033872;28;20435;-89
2021/07/11 03:02:40;;;;;;;31.20;28.70;;;;;;;;;;5034179;28;20431;-89
2021/07/11 03:05:10;;;;;;;30.67;28.70;;;;;;;;;;5033781;28;20496;-89
2021/07/11 03:07:37;;;;;;;28.60;26.70;;;;;;;;;;5000348;28;20425;-89
2021/07/11 03:10:07;;;;;;;28.53;26.53;;;;;;;;;;5034084;28;20444;-89
2021/07/11 03:12:35;;;;;;;29.80;27.80;;;;;;;;;;5034096;28;20423;-89
2021/07/11 03:15:03;;;;;;;30.90;28.67;;;;;;;;;;5016979;28;20435;-89
2021/07/11 03:17:32;;;;;;;30.33;28.30;;;;;;;;;;5033760;28;20448;-89
2021/07/11 03:19:59;;;;;;;32.13;29.43;;;;;;;;;;5036305;28;20441;-89
2021/07/11 03:22:28;;;;;;;28.60;26.70;;;;;;;;;;5020664;28;20420;-89
2021/07/11 03:24:58;;;;;;;29.97;27.57;;;;;;;;;;5037617;28;21028;-91
2021/07/11 03:27:28;;;;;;;29.77;27.87;;;;;;;;;;5037780;28;20478;-89
2021/07/11 03:30:02;;;;;;;28.90;27.00;;;;;;;;;;5037838;28;20822;-89
2021/07/11 03:32:30;;;;;;;31.47;29.10;;;;;;;;;;5037595;28;20475;-89
2021/07/11 03:35:01;;;;;;;31.50;29.30;;;;;;;;;;5037897;28;20430;-89
2021/07/11 03:37:31;;;;;;;30.17;27.97;;;;;;;;;;5037693;28;20487;-89
2021/07/11 03:39:59;;;;;;;28.93;27.07;;;;;;;;;;5037092;28;21014;-89
2021/07/11 03:42:29;;;;;;;28.80;26.80;;;;;;;;;;5019751;28;20423;-89
2021/07/11 03:44:59;;;;;;;28.20;26.20;;;;;;;;;;5037271;28;20462;-89
2021/07/11 03:47:28;;;;;;;29.57;27.33;;;;;;;;;;5037030;28;20773;-81
2021/07/11 03:49:56;;;;;;;29.60;27.70;;;;;;;;;;5036440;28;20416;-81
2021/07/11 03:52:25;;;;;;;30.63;28.63;;;;;;;;;;5036559;28;20448;-89
2021/07/11 03:54:53;;;;;;;29.13;27.13;;;;;;;;;;5038081;28;20939;-89
2021/07/11 03:57:21;;;;;;;28.93;27.03;;;;;;;;;;5037116;28;20489;-89
2021/07/11 03:59:50;;;;;;;31.10;28.90;;;;;;;;;;5036590;28;20461;-81
2021/07/11 04:02:19;;;;;;;28.80;27.00;;;;;;;;;;5036200;28;20909;-82
2021/07/11 04:04:46;;;;;;;30.30;28.20;;;;;;;;;;5036026;28;20979;-81
2021/07/11 04:07:14;;;;;;;32.67;30.27;;;;;;;;;;5036633;28;20883;-81
2021/07/11 04:09:42;;;;;;;31.30;29.27;;;;;;;;;;5036081;28;20411;-81
2021/07/11 04:12:10;;;;;;;31.77;29.77;;;;;;;;;;5035987;28;20415;-81
2021/07/11 04:14:37;;;;;;;33.17;30.83;;;;;;;;;;5035734;28;20845;-81
2021/07/11 04:17:07;;;;;;;33.70;31.60;;;;;;;;;;5035870;28;20568;-81
2021/07/11 04:19:36;;;;;;;34.40;32.00;;;;;;;;;;5036134;28;20416;-81
2021/07/11 04:22:04;;;;;;;35.73;33.30;;;;;;;;;;5035904;28;20411;-81
2021/07/11 04:24:32;;;;;;;36.30;33.70;;;;;;;;;;5035831;28;20475;-81
2021/07/11 04:26:59;;;;;;;37.47;34.87;;;;;;;;;;5035533;28;20445;-81
2021/07/11 04:29:27;;;;;;;36.77;33.60;;;;;;;;;;5035746;28;20449;-81
2021/07/11 04:31:54;;;;;;;37.17;34.43;;;;;;;;;;5034829;28;20450;-81
2021/07/11 04:34:26;;;;;;;38.17;35.40;;;;;;;;;;5035703;28;20443;-81
2021/07/11 04:36:54;;;;;;;39.07;35.63;;;;;;;;;;5035643;28;20923;-81
2021/07/11 04:39:21;;;;;;;39.40;36.57;;;;;;;;;;5035544;28;20448;-81
2021/07/11 04:41:49;;;;;;;39.53;36.40;;;;;;;;;;5035777;28;20423;-81
2021/07/11 04:44:17;;;;;;;37.33;34.37;;;;;;;;;;5035756;28;20457;-81
2021/07/11 04:46:44;;;;;;;40.07;36.87;;;;;;;;;;5035353;28;20949;-81
2021/07/11 04:49:12;;;;;;;40.37;37.27;;;;;;;;;;5035667;28;20407;-81
2021/07/11 04:51:40;;;;;;;37.47;34.73;;;;;;;;;;5035576;28;20446;-81
2021/07/11 04:54:09;;;;;;;37.37;34.50;;;;;;;;;;5035557;28;20407;-81
2021/07/11 04:56:37;;;;;;;36.80;33.90;;;;;;;;;;5034833;28;20488;-81
2021/07/11 04:59:05;;;;;;;37.93;35.17;;;;;;;;;;5035441;28;20424;-81
2021/07/11 05:01:33;;;;;;;38.37;35.37;;;;;;;;;;5017641;28;20448;-81
2021/07/11 05:04:00;;;;;;;39.43;36.73;;;;;;;;;;5034992;28;20798;-81
2021/07/11 05:06:27;;;;;;;37.97;35.17;;;;;;;;;;5034983;28;20978;-81
2021/07/11 05:08:56;;;;;;;38.47;35.47;;;;;;;;;;5035214;28;20438;-81
2021/07/11 05:11:24;;;;;;;39.57;36.67;;;;;;;;;;5034963;28;20907;-81
2021/07/11 05:13:51;;;;;;;37.67;34.87;;;;;;;;;;5035132;28;20415;-81
2021/07/11 05:16:18;;;;;;;38.17;35.40;;;;;;;;;;5034818;28;20465;-81
2021/07/11 05:18:46;;;;;;;38.27;35.53;;;;;;;;;;5034745;28;20417;-81
2021/07/11 05:21:13;;;;;;;37.13;34.40;;;;;;;;;;5017241;28;20475;-81
2021/07/11 05:23:40;;;;;;;38.00;35.20;;;;;;;;;;5034856;28;20456;-81
2021/07/11 05:26:09;;;;;;;37.23;34.40;;;;;;;;;;5034731;28;20468;-81
2021/07/11 05:28:36;;;;;;;36.83;34.23;;;;;;;;;;5034301;28;20456;-81
2021/07/11 05:31:04;;;;;;;38.10;35.37;;;;;;;;;;5034603;28;20407;-81
2021/07/11 05:33:31;;;;;;;37.60;34.70;;;;;;;;;;5034790;28;20416;-82
2021/07/11 05:35:59;;;;;;;38.63;35.33;;;;;;;;;;5034371;28;20453;-81
2021/07/11 05:38:26;;;;;;;39.67;36.63;;;;;;;;;;5034205;28;20939;-81
2021/07/11 05:40:54;;;;;;;37.70;34.90;;;;;;;;;;5034267;28;20467;-81
2021/07/11 05:43:23;;;;;;;37.30;34.30;;;;;;;;;;5034069;28;20438;-81
2021/07/11 05:45:50;;;;;;;39.27;36.33;;;;;;;;;;5034476;28;20496;-81
2021/07/11 05:48:18;;;;;;;39.17;36.43;;;;;;;;;;5034481;28;20421;-79
2021/07/11 05:50:45;;;;;;;37.97;35.37;;;;;;;;;;5034195;28;20421;-81
2021/07/11 05:53:12;;;;;;;38.80;35.33;;;;;;;;;;5034541;28;20468;-81
2021/07/11 05:55:40;;;;;;;37.90;35.30;;;;;;;;;;5033933;28;20939;-80
2021/07/11 05:58:07;;;;;;;38.67;35.80;;;;;;;;;;5034330;28;20430;-81
2021/07/11 06:00:36;;;;;;;39.13;36.33;;;;;;;;;;5033743;28;20416;-81
2021/07/11 06:03:04;;;;;;;40.03;36.97;;;;;;;;;;5034036;28;20424;-81
2021/07/11 06:05:31;;;;;;;39.47;36.50;;;;;;;;;;5033914;28;20457;-81
2021/07/11 06:07:58;;;;;;;39.17;36.20;;;;;;;;;;5034073;28;20431;-81
2021/07/11 06:10:26;;;;;;;42.60;39.37;;;;;;;;;;5034243;28;20433;-85
2021/07/11 06:12:53;;;;;;;38.97;36.03;;;;;;;;;;5034595;28;20409;-88
2021/07/11 06:15:21;;;;;;;41.30;38.10;;;;;;;;;;5034466;28;20413;-89
2021/07/11 06:17:49;;;;;;;42.13;39.13;;;;;;;;;;5034155;28;20412;-81
2021/07/11 06:20:17;;;;;;;40.47;37.10;;;;;;;;;;5033581;28;20416;-80
2021/07/11 06:22:44;;;;;;;41.30;38.20;;;;;;;;;;5033859;28;20920;-80
2021/07/11 06:25:12;;;;;;;39.00;35.77;;;;;;;;;;5033703;28;20448;-80
2021/07/11 06:27:41;;;;;;;40.30;37.30;;;;;;;;;;5033680;28;20791;-80
2021/07/11 06:30:10;;;;;;;39.80;36.80;;;;;;;;;;5033800;28;20499;-80
2021/07/11 06:32:38;;;;;;;40.33;37.43;;;;;;;;;;5033565;28;20479;-81
2021/07/11 06:35:08;;;;;;;38.97;36.07;;;;;;;;;;5033412;28;20413;-80
2021/07/11 06:37:35;;;;;;;38.27;35.43;;;;;;;;;;5033389;28;20969;-80
2021/07/11 06:40:03;;;;;;;39.83;36.93;;;;;;;;;;5033258;28;20459;-80
2021/07/11 06:42:30;;;;;;;41.73;38.63;;;;;;;;;;5032986;28;20451;-80
2021/07/11 06:44:58;;;;;;;43.17;40.10;;;;;;;;;;5033563;28;20458;-81
2021/07/11 06:47:25;;;;;;;41.20;37.90;;;;;;;;;;5033539;28;20416;-80
2021/07/11 06:49:52;;;;;;;41.13;38.10;;;;;;;;;;5033268;28;20437;-80
2021/07/11 06:52:21;;;;;;;41.80;38.47;;;;;;;;;;5033198;28;20943;-80
2021/07/11 06:54:51;;;;;;;43.80;40.60;;;;;;;;;;5032560;28;20891;-81
2021/07/11 06:57:18;;;;;;;43.83;40.43;;;;;;;;;;5032960;28;20448;-81
2021/07/11 06:59:46;;;;;;;47.93;44.27;;;;;;;;;;5033421;28;20440;-81
2021/07/11 07:02:13;;;;;;;44.53;41.07;;;;;;;;;;5033381;28;20414;-81
2021/07/11 07:04:41;;;;;;;46.00;42.40;;;;;;;;;;5032963;28;20414;-81
2021/07/11 07:07:08;;;;;;;45.00;41.57;;;;;;;;;;5032982;28;20460;-81
2021/07/11 07:09:37;;;;;;;45.50;42.30;;;;;;;;;;5033123;28;20936;-81
2021/07/11 07:12:05;;;;;;;44.90;41.60;;;;;;;;;;5032949;28;20417;-80
2021/07/11 07:14:32;;;;;;;46.27;42.77;;;;;;;;;;5033249;28;20521;-80
2021/07/11 07:16:59;;;;;;;47.50;43.80;;;;;;;;;;5032914;28;20425;-81
2021/07/11 07:19:27;;;;;;;45.30;41.93;;;;;;;;;;5033350;28;20442;-80
2021/07/11 07:21:54;;;;;;;44.93;41.53;;;;;;;;;;5033806;28;20792;-80
2021/07/11 07:24:21;;;;;;;44.07;40.03;;;;;;;;;;5033662;28;20425;-79
2021/07/11 07:26:50;;;;;;;47.17;43.50;;;;;;;;;;5032822;28;20457;-82
2021/07/11 07:29:18;;;;;;;44.70;41.33;;;;;;;;;;5015764;28;20930;-81
2021/07/11 07:31:47;;;;;;;45.50;42.10;;;;;;;;;;5033157;28;20416;-80
2021/07/11 07:34:14;;;;;;;45.83;42.33;;;;;;;;;;5033228;28;20417;-80
2021/07/11 07:36:42;;;;;;;45.97;42.37;;;;;;;;;;5032916;28;20428;-81
2021/07/11 07:39:09;;;;;;;43.90;40.70;;;;;;;;;;5032967;28;20959;-80
2021/07/11 07:41:37;;;;;;;44.13;40.67;;;;;;;;;;5032689;28;20465;-81
2021/07/11 07:44:06;;;;;;;46.67;43.17;;;;;;;;;;5033093;28;20440;-81
2021/07/11 07:46:34;;;;;;;46.93;43.23;;;;;;;;;;5032698;28;20494;-81
2021/07/11 07:49:01;;;;;;;47.70;43.73;;;;;;;;;;5033250;28;20413;-81
2021/07/11 07:51:28;;;;;;;47.70;43.90;;;;;;;;;;5033236;28;20422;-81
2021/07/11 07:53:56;;;;;;;47.73;43.93;;;;;;;;;;5032960;28;20954;-81
2021/07/11 07:56:24;;;;;;;49.60;45.70;;;;;;;;;;5015284;28;20418;-81
2021/07/11 07:58:51;;;;;;;46.80;43.33;;;;;;;;;;5033123;28;20443;-81
2021/07/11 08:01:20;;;;;;;49.60;45.60;;;;;;;;;;5033149;28;20405;-81
2021/07/11 08:03:47;;;;;;;48.30;44.50;;;;;;;;;;5033077;28;20438;-80
2021/07/11 08:06:15;;;;;;;46.67;42.80;;;;;;;;;;5035482;28;20464;-80
2021/07/11 08:08:42;;;;;;;49.83;45.67;;;;;;;;;;5036591;28;20417;-81
2021/07/11 08:11:10;;;;;;;45.60;42.20;;;;;;;;;;5036314;28;20903;-79
2021/07/11 08:13:37;;;;;;;47.40;43.50;;;;;;;;;;5036325;28;20408;-80
2021/07/11 08:16:05;;;;;;;47.90;43.83;;;;;;;;;;5036147;28;20425;-81
2021/07/11 08:18:34;;;;;;;46.20;42.53;;;;;;;;;;5036125;28;20421;-81
2021/07/11 08:21:01;;;;;;;50.03;45.93;;;;;;;;;;5036254;28;20445;-81
2021/07/11 08:23:29;;;;;;;48.23;44.20;;;;;;;;;;5036070;28;20436;-81
2021/07/11 08:25:56;;;;;;;46.73;43.10;;;;;;;;;;5035845;28;20443;-80
2021/07/11 08:28:23;;;;;;;45.37;41.60;;;;;;;;;;5035908;28;20968;-81
2021/07/11 08:30:51;;;;;;;43.13;39.73;;;;;;;;;;5036233;28;20410;-81
2021/07/11 08:33:18;;;;;;;44.30;40.90;;;;;;;;;;5035927;28;20899;-81
2021/07/11 08:35:47;;;;;;;47.00;43.43;;;;;;;;;;5035774;28;20933;-80
2021/07/11 08:38:15;;;;;;;47.07;43.00;;;;;;;;;;5035724;28;20929;-81
2021/07/11 08:40:42;;;;;;;45.93;42.50;;;;;;;;;;5035723;28;20486;-80
2021/07/11 08:43:10;;;;;;;47.87;43.90;;;;;;;;;;5035756;28;20769;-80
2021/07/11 08:45:37;;;;;;;43.13;39.70;;;;;;;;;;5035739;28;20430;-80
2021/07/11 08:48:05;;;;;;;46.63;43.13;;;;;;;;;;5035624;28;20450;-80
2021/07/11 08:50:33;;;;;;;46.70;43.27;;;;;;;;;;5035783;28;20444;-80
2021/07/11 08:53:02;;;;;;;46.50;42.80;;;;;;;;;;5035513;28;20475;-81
2021/07/11 08:55:30;;;;;;;44.77;41.40;;;;;;;;;;5035568;28;20465;-80
2021/07/11 08:57:58;;;;;;;46.10;42.53;;;;;;;;;;5035449;28;20417;-80
2021/07/11 09:00:26;;;;;;;44.17;40.57;;;;;;;;;;5035395;28;20425;-80
2021/07/11 09:02:54;;;;;;;47.53;44.00;;;;;;;;;;5017394;28;20932;-79
2021/07/11 09:05:23;;;;;;;44.50;41.10;;;;;;;;;;5035207;28;20772;-80
2021/07/11 09:07:57;;;;;;;45.77;42.33;;;;;;;;;;5035242;28;20457;-80
2021/07/11 09:10:30;;;;;;;46.60;43.10;;;;;;;;;;5035156;28;20742;-80
2021/07/11 09:12:59;;;;;;;46.60;43.07;;;;;;;;;;5033981;28;20428;-80
2021/07/11 09:15:30;;;;;;;45.63;41.93;;;;;;;;;;5034902;28;20465;-79
2021/07/11 09:17:58;;;;;;;45.40;41.90;;;;;;;;;;5016723;28;20435;-79
2021/07/11 09:20:25;;;;;;;45.50;42.10;;;;;;;;;;5035053;28;20424;-80
2021/07/11 09:22:59;;;;;;;47.07;43.27;;;;;;;;;;5034666;28;20417;-79
2021/07/11 09:25:38;;;;;;;44.53;41.27;;;;;;;;;;5034726;28;20431;-78
2021/07/11 09:28:12;;;;;;;45.63;42.27;;;;;;;;;;5016405;28;20484;-80
2021/07/11 09:30:40;;;;;;;45.33;41.80;;;;;;;;;;5034574;28;20417;-80
2021/07/11 09:33:22;;;;;;;45.70;42.33;;;;;;;;;;5034457;28;20439;-78
2021/07/11 09:36:00;;;;;;;45.53;42.03;;;;;;;;;;5034492;28;20820;-78
2021/07/11 09:38:38;;;;;;;42.23;39.00;;;;;;;;;;5034449;28;20447;-79
2021/07/11 09:41:30;;;;;;;47.07;43.67;;;;;;;;;;5033592;28;20468;-78
2021/07/11 09:44:09;;;;;;;46.27;42.63;;;;;;;;;;5033977;28;20791;-79
2021/07/11 09:46:43;;;;;;;43.90;40.57;;;;;;;;;;5033864;28;20948;-78
2021/07/11 09:49:25;;;;;;;43.30;40.00;;;;;;;;;;5033647;28;20526;-78
2021/07/11 09:51:54;;;;;;;41.60;38.50;;;;;;;;;;5033963;28;20402;-80
2021/07/11 09:54:21;;;;;;;44.97;41.57;;;;;;;;;;5034295;28;20429;-80
2021/07/11 09:56:48;;;;;;;41.93;38.80;;;;;;;;;;5034034;28;20451;-80
2021/07/11 09:59:18;;;;;;;43.10;39.90;;;;;;;;;;5033941;28;20443;-80
2021/07/11 10:01:46;;;;;;;43.53;40.40;;;;;;;;;;5034094;28;20948;-80
2021/07/11 10:04:13;;;;;;;40.80;37.80;;;;;;;;;;5034476;28;20451;-78
2021/07/11 10:06:41;;;;;;;42.03;39.13;;;;;;;;;;5034184;28;20449;-79
2021/07/11 10:09:10;;;;;;;42.03;38.93;;;;;;;;;;5034145;28;20414;-77
2021/07/11 10:11:37;;;;;;;43.00;39.80;;;;;;;;;;5016659;28;20429;-78
2021/07/11 10:14:05;;;;;;;48.17;44.63;;;;;;;;;;5041119;28;20414;-79
2021/07/11 10:16:36;;;;;;;43.40;40.23;;;;;;;;;;5042705;28;20435;-79
2021/07/11 10:19:04;;;;;;;46.00;42.20;;;;;;;;;;5042189;28;20431;-79
2021/07/11 10:21:32;;;;;;;47.13;43.53;;;;;;;;;;5042526;28;20792;-79
2021/07/11 10:24:00;;;;;;;48.60;44.87;;;;;;;;;;5024964;28;20806;-79
2021/07/11 10:26:36;;;;;;;45.93;42.30;;;;;;;;;;5043980;28;20456;-79
2021/07/11 10:29:11;;;;;;;44.73;41.43;;;;;;;;;;5046864;28;20437;-79
2021/07/11 10:31:44;;;;;;;45.97;42.37;;;;;;;;;;5053476;28;20449;-79
2021/07/11 10:34:11;;;;;;;49.10;45.23;;;;;;;;;;5053394;28;20555;-79
2021/07/11 10:36:39;;;;;;;46.97;43.47;;;;;;;;;;5053275;28;20915;-79
2021/07/11 10:41:52;;;;;;;46.37;43.00;;;;;;;;;;5053302;28;20512;-79
2021/07/11 10:44:21;;;;;;;44.50;41.10;;;;;;;;;;5053201;28;20442;-79
2021/07/11 10:46:54;;;;;;;52.40;47.87;;;;;;;;;;5053412;28;20487;-80
2021/07/11 10:49:22;;;;;;;50.80;46.77;;;;;;;;;;5053135;28;20413;-80
2021/07/11 10:51:50;;;;;;;48.40;44.53;;;;;;;;;;5053346;28;20417;-80
2021/07/11 10:54:21;;;;;;;50.17;46.17;;;;;;;;;;5053411;28;20435;-79
2021/07/11 10:56:48;;;;;;;48.67;44.80;;;;;;;;;;5053301;28;20447;-79
2021/07/11 10:59:25;;;;;;;49.53;45.27;;;;;;;;;;5052832;28;21232;-79
2021/07/11 11:01:54;;;;;;;47.17;43.67;;;;;;;;;;5053079;28;20416;-80
2021/07/11 11:04:38;;;;;;;47.03;43.60;;;;;;;;;;5035459;28;20459;-79
2021/07/11 11:07:15;;;;;;;51.07;47.07;;;;;;;;;;5052875;28;20461;-79
2021/07/11 11:09:43;;;;;;;52.57;48.57;;;;;;;;;;5053333;28;20820;-80
2021/07/11 11:12:21;;;;;;;48.10;44.53;;;;;;;;;;5053231;28;20847;-80
2021/07/11 11:14:52;;;;;;;50.40;46.20;;;;;;;;;;5052964;28;20409;-79
2021/07/11 11:17:29;;;;;;;49.90;46.13;;;;;;;;;;5034917;28;20512;-80
2021/07/11 11:19:57;;;;;;;50.70;46.70;;;;;;;;;;5053163;28;20748;-80
2021/07/11 11:22:24;;;;;;;51.43;47.10;;;;;;;;;;5052916;28;20435;-80
2021/07/11 11:24:51;;;;;;;53.00;48.80;;;;;;;;;;5053180;28;20429;-80
2021/07/11 11:27:29;;;;;;;51.40;47.07;;;;;;;;;;5052618;28;20475;-80
2021/07/11 11:29:57;;;;;;;52.23;47.90;;;;;;;;;;5053211;28;20439;-79
2021/07/11 11:32:29;;;;;;;53.73;49.37;;;;;;;;;;5052797;28;20915;-79
2021/07/11 11:34:57;;;;;;;55.57;50.77;;;;;;;;;;5052670;28;20417;-80
2021/07/11 11:37:24;;;;;;;53.30;48.77;;;;;;;;;;5052915;28;20420;-80
2021/07/11 11:39:53;;;;;;;56.87;51.80;;;;;;;;;;5052986;28;20843;-81
2021/07/11 11:42:22;;;;;;;55.87;50.87;;;;;;;;;;5056756;28;20445;-80
2021/07/11 11:44:50;;;;;;;55.20;50.37;;;;;;;;;;5056820;28;20475;-80
2021/07/11 11:47:17;;;;;;;54.93;50.00;;;;;;;;;;5056297;28;20486;-80
2021/07/11 11:49:46;;;;;;;54.30;49.40;;;;;;;;;;5056692;28;20439;-80
2021/07/11 11:52:13;;;;;;;57.53;52.40;;;;;;;;;;5056680;28;20415;-81
2021/07/11 11:54:42;;;;;;;52.23;47.57;;;;;;;;;;5056679;28;20787;-80
2021/07/11 11:57:11;;;;;;;52.20;47.37;;;;;;;;;;5056151;28;20514;-81
2021/07/11 11:59:39;;;;;;;52.10;47.60;;;;;;;;;;5056351;28;20418;-81
2021/07/11 12:02:07;;;;;;;54.83;49.90;;;;;;;;;;5056426;28;20453;-80
2021/07/11 12:04:34;;;;;;;54.80;50.03;;;;;;;;;;5056467;28;20535;-80
2021/07/11 12:07:04;;;;;;;50.23;45.87;;;;;;;;;;5055815;28;20456;-78
2021/07/11 12:09:32;;;;;;;52.63;48.33;;;;;;;;;;5055957;28;20446;-81
2021/07/11 12:12:01;;;;;;;51.77;47.33;;;;;;;;;;5056340;28;20418;-80
2021/07/11 12:14:29;;;;;;;53.40;48.80;;;;;;;;;;5038233;28;20423;-80
2021/07/11 12:16:57;;;;;;;51.07;46.67;;;;;;;;;;5055956;28;20443;-80
2021/07/11 12:19:24;;;;;;;50.67;46.57;;;;;;;;;;5055731;28;20964;-80
2021/07/11 12:21:53;;;;;;;52.00;47.30;;;;;;;;;;5055830;28;20447;-80
2021/07/11 12:24:24;;;;;;;50.60;46.43;;;;;;;;;;5055946;28;20410;-80
2021/07/11 12:26:53;;;;;;;50.50;46.33;;;;;;;;;;5055879;28;20467;-81
2021/07/11 12:29:29;;;;;;;51.70;47.33;;;;;;;;;;5056114;28;20447;-80
2021/07/11 12:31:57;;;;;;;53.07;48.57;;;;;;;;;;5055688;28;20442;-80
2021/07/11 12:34:25;;;;;;;48.60;44.50;;;;;;;;;;5056102;28;20466;-81
2021/07/11 12:36:53;;;;;;;48.60;44.40;;;;;;;;;;5038479;28;20424;-80
2021/07/11 12:39:23;;;;;;;48.60;44.40;;;;;;;;;;5055679;28;20832;-80
2021/07/11 12:41:51;;;;;;;47.27;43.27;;;;;;;;;;5055640;28;20467;-80
2021/07/11 12:44:19;;;;;;;48.97;44.87;;;;;;;;;;5055928;28;20401;-80
2021/07/11 12:46:47;;;;;;;49.90;45.30;;;;;;;;;;5055846;28;20498;-80
2021/07/11 12:49:15;;;;;;;50.40;46.27;;;;;;;;;;5055837;28;20490;-80
2021/07/11 12:51:48;;;;;;;46.17;42.47;;;;;;;;;;5054759;28;20425;-80
2021/07/11 12:54:16;;;;;;;47.90;43.60;;;;;;;;;;5055683;28;20447;-80
2021/07/11 12:56:52;;;;;;;46.77;42.97;;;;;;;;;;5055221;28;20421;-80
2021/07/11 12:59:27;;;;;;;51.27;46.93;;;;;;;;;;5055684;28;20412;-80
2021/07/11 13:02:01;;;;;;;50.57;45.70;;;;;;;;;;5055657;28;20405;-80
2021/07/11 13:04:29;;;;;;;50.57;46.37;;;;;;;;;;5056151;28;20520;-80
2021/07/11 13:07:02;;;;;;;49.30;45.00;;;;;;;;;;5055382;28;20419;-80
2021/07/11 13:09:29;;;;;;;44.53;41.13;;;;;;;;;;5055495;28;20413;-80
2021/07/11 13:11:58;;;;;;;46.63;42.73;;;;;;;;;;5055261;28;20799;-80
2021/07/11 13:14:25;;;;;;;49.60;45.43;;;;;;;;;;5055141;28;20888;-80
2021/07/11 13:16:52;;;;;;;48.10;43.90;;;;;;;;;;5055299;28;20439;-81
2021/07/11 13:19:20;;;;;;;48.03;43.73;;;;;;;;;;5055094;28;20427;-80
2021/07/11 13:21:48;;;;;;;49.17;45.07;;;;;;;;;;5054978;28;20432;-80
2021/07/11 13:24:15;;;;;;;45.93;42.13;;;;;;;;;;5054889;28;20442;-80
2021/07/11 13:26:42;;;;;;;46.87;42.90;;;;;;;;;;5037083;28;20475;-80
2021/07/11 13:29:11;;;;;;;45.50;41.90;;;;;;;;;;5054973;28;20483;-81
2021/07/11 13:31:39;;;;;;;48.60;44.40;;;;;;;;;;5057285;28;20800;-86
2021/07/11 13:34:06;;;;;;;48.43;44.43;;;;;;;;;;5055537;28;20872;-80
2021/07/11 13:36:33;;;;;;;50.83;46.57;;;;;;;;;;5054711;28;20931;-82
2021/07/11 13:39:01;;;;;;;49.90;45.60;;;;;;;;;;5055025;28;20401;-87
2021/07/11 13:41:29;;;;;;;50.70;46.40;;;;;;;;;;5033394;28;20534;-79
2021/07/11 13:43:57;;;;;;;52.10;47.80;;;;;;;;;;5035267;28;20417;-90
2021/07/11 13:46:26;;;;;;;50.20;45.90;;;;;;;;;;5035123;28;20481;-79
2021/07/11 13:48:53;;;;;;;48.97;44.77;;;;;;;;;;5035476;28;20484;-84
2021/07/11 13:51:20;;;;;;;48.93;44.50;;;;;;;;;;5034982;28;20422;-90
2021/07/11 13:53:48;;;;;;;49.17;45.30;;;;;;;;;;5034750;28;20823;-94
2021/07/11 13:56:15;;;;;;;46.87;43.37;;;;;;;;;;5034913;28;20442;-86
2021/07/11 13:58:43;;;;;;;46.20;42.57;;;;;;;;;;5034500;28;20451;-81
2021/07/11 14:01:10;;;;;;;45.53;41.90;;;;;;;;;;5035223;28;20459;-87
2021/07/11 14:03:39;;;;;;;45.90;42.20;;;;;;;;;;5033576;28;20506;-87
2021/07/11 14:06:07;;;;;;;47.67;43.97;;;;;;;;;;5035298;28;20421;-87
2021/07/11 14:08:34;;;;;;;46.20;42.60;;;;;;;;;;5034805;28;20454;-87
2021/07/11 14:11:02;;;;;;;45.70;42.10;;;;;;;;;;5034707;28;20801;-80
2021/07/11 14:13:29;;;;;;;48.83;45.00;;;;;;;;;;5034715;28;20418;-81
2021/07/11 14:15:57;;;;;;;49.93;45.73;;;;;;;;;;5033953;28;20446;-80
2021/07/11 14:18:24;;;;;;;49.57;45.33;;;;;;;;;;5034450;28;20422;-81
2021/07/11 14:20:53;;;;;;;50.17;45.97;;;;;;;;;;5033917;28;20433;-81
2021/07/11 14:23:21;;;;;;;50.17;45.73;;;;;;;;;;5034176;28;20436;-80
2021/07/11 14:25:48;;;;;;;50.00;45.70;;;;;;;;;;5033975;28;20419;-81
2021/07/11 14:28:15;;;;;;;64.03;58.30;;;;;;;;;;5033980;28;20852;-81